Airfield :
LOGIN :

Register | Disclaimer

   EN    FR    IT 

 










Legend :    VFR   Marginal VFR   IFR   Intensive IFR   Very Intensive IFR
Visi :
Ceiling :
>= 8 km
>= 3000ft
5 to 8 km
1000 to 3000 ft
1500m to 5 km
500 to 1000 ft
800 to 1500m
200 to 500 ft
< 800m
< 200 ft
Symbols :   Thunderstorms  Fog  Heavy snow  Heavy precipitations  Wind > 20 kt
SIGMETs :     Misc.  Thunderstorms  Icing  Turbulence  Mountain Waves  Volcanic Ashes






- Airport Elevation : 25 ft
- IATA code : TPS


LICT - Vincenzo Florio Trapani

CURRENT METAR :
  • 200155Z 36013KT 9999 FEW018 SCT025 13/08 Q1022

EXPIRED METARs :
  • 200055Z 01012KT 9999 FEW018 SCT025 13/09 Q1022
  • 192355Z 35010KT 9999 FEW018 BKN025 13/09 Q1022 RMK BKN VIS MIN 9999 WIND THR13 33014KT BLU

TAF TAF LICT
Valid from the 20 at 03:00 until the 20 at 12:00 UTC


200200Z 2003/2012 34010KT 9999 FEW030



MET'MAP, your aeronautical weather chart ! - Copyright ORBIFLY December 2007 - Disclaimer

ORBIFLY MET'MAP TEAM :

Programming & Development : Alexandra Zaïnal
Concept & original design : Baudouin d'Aumeries
Assistance for programming : Marc-Olivier Méhu
Technical & hardware support : Manuel Goepfert

Contact : metmap@orbifly.com




SOURCES & CREDITS :

   NOAA